Uniontown, Washington
Current Conditions -  °F | °C
As of 12:56 PM on Saturday 22 Nov 2014 (Local Time) from KLWS Reporting Station
Overcast Overcast  
Wind Chill: 52°   Ceiling: 9000
Heat Index: 52°   Visibility: 10mi
Dew Point: 29°   Wind: 6mph
Humidity: 41%   Direction: 230°SW
Pressure: 29.73"   Gusts: 16mph
Location:  46.54°N, 117.09°W
Report Text: KLWS 222056Z 23005G14KT 10SM OVC090 11/M02 A2973 RMK AO2 SLP068 T01111017 53009
Loading
Personal Weather Stations






























Interactive Weather Map New forecast layout! Learn more

10-Day Weather Forecast

Advertisements
Track Severe Weather on mobile